createdAt,value
2022-12-09T00:01:17.225Z,6.40
2022-12-09T00:03:44.703Z,6.40
2022-12-09T00:06:26.105Z,6.50
2022-12-09T00:08:54.147Z,6.50
2022-12-09T00:11:21.941Z,6.40
2022-12-09T00:13:54.763Z,6.40
2022-12-09T00:16:22.592Z,6.50
2022-12-09T00:18:50.057Z,6.50
2022-12-09T00:21:20.449Z,6.40
2022-12-09T00:23:48.175Z,6.30
2022-12-09T00:26:16.408Z,6.30
2022-12-09T00:28:43.722Z,6.30
2022-12-09T00:31:14.264Z,6.40
2022-12-09T00:33:41.328Z,6.40
2022-12-09T00:36:11.703Z,6.40
2022-12-09T00:38:38.656Z,6.50
2022-12-09T00:41:06.064Z,6.50
2022-12-09T00:43:33.640Z,6.50
2022-12-09T00:46:01.402Z,6.50
2022-12-09T00:48:28.804Z,6.40
2022-12-09T00:50:55.884Z,6.40
2022-12-09T00:53:22.939Z,6.50
2022-12-09T00:55:49.784Z,6.40
2022-12-09T00:58:17.090Z,6.60
2022-12-09T01:00:44.246Z,6.60
2022-12-09T01:03:16.177Z,6.50
2022-12-09T01:05:43.674Z,6.60
2022-12-09T01:08:12.345Z,6.50
2022-12-09T01:10:40.435Z,6.50
2022-12-09T01:13:07.688Z,6.50
2022-12-09T01:15:34.942Z,6.70
2022-12-09T01:18:01.862Z,6.70
2022-12-09T01:20:29.115Z,6.60
2022-12-09T01:22:56.170Z,6.50
2022-12-09T01:25:23.031Z,6.60
2022-12-09T01:27:50.234Z,6.70
2022-12-09T01:30:17.255Z,6.50
2022-12-09T01:32:44.690Z,6.50
2022-12-09T01:35:11.735Z,6.70
2022-12-09T01:37:38.515Z,6.60
2022-12-09T01:40:08.590Z,6.70
2022-12-09T01:42:35.704Z,6.60
2022-12-09T01:45:23.668Z,6.50
2022-12-09T01:48:03.701Z,6.60
2022-12-09T01:50:32.596Z,6.50
2022-12-09T01:52:59.876Z,6.50
2022-12-09T01:55:27.274Z,6.50
2022-12-09T01:57:54.650Z,6.60
2022-12-09T02:00:21.654Z,6.60
2022-12-09T02:02:50.012Z,6.50
2022-12-09T02:05:18.896Z,6.50
2022-12-09T02:07:45.737Z,6.50
2022-12-09T02:10:17.439Z,6.50
2022-12-09T02:13:07.885Z,6.50
2022-12-09T02:15:45.436Z,6.40
2022-12-09T02:18:31.428Z,6.40
2022-12-09T02:21:03.938Z,6.50
2022-12-09T02:23:43.589Z,6.40
2022-12-09T02:26:49.191Z,6.40
2022-12-09T02:29:33.943Z,6.40
2022-12-09T02:32:03.842Z,6.50
2022-12-09T02:34:34.176Z,6.40
2022-12-09T02:37:10.757Z,6.30
2022-12-09T02:40:00.785Z,6.20
2022-12-09T02:42:31.794Z,6.20
2022-12-09T02:45:01.243Z,6.20
2022-12-09T02:47:31.590Z,6.20
2022-12-09T02:50:06.391Z,6.20
2022-12-09T02:52:35.613Z,6.40
2022-12-09T02:55:07.666Z,6.40
2022-12-09T02:57:36.046Z,6.50
2022-12-09T03:00:06.708Z,6.70
2022-12-09T03:02:39.687Z,6.70
2022-12-09T03:05:27.955Z,6.60
2022-12-09T03:08:29.279Z,6.40
2022-12-09T03:11:12.759Z,6.30
2022-12-09T03:14:02.961Z,6.30
2022-12-09T03:16:52.345Z,6.40
2022-12-09T03:19:22.166Z,6.30
2022-12-09T03:21:52.358Z,6.20
2022-12-09T03:24:24.287Z,6.20
2022-12-09T03:26:51.650Z,6.20
2022-12-09T03:29:25.556Z,6.30
2022-12-09T03:31:54.990Z,6.30
2022-12-09T03:34:25.750Z,6.30
2022-12-09T03:36:53.939Z,6.40
2022-12-09T03:39:27.326Z,6.30
2022-12-09T03:41:58.385Z,6.40
2022-12-09T03:44:40.180Z,6.40
2022-12-09T03:47:08.540Z,6.50
2022-12-09T03:49:37.775Z,6.40
2022-12-09T03:52:20.105Z,6.30
2022-12-09T03:54:50.811Z,6.30
2022-12-09T03:57:19.928Z,6.30
2022-12-09T03:59:59.362Z,6.40
2022-12-09T04:02:26.806Z,6.50
2022-12-09T04:04:54.302Z,6.40
2022-12-09T04:07:21.482Z,6.40
2022-12-09T04:09:48.288Z,6.40
2022-12-09T04:12:15.173Z,6.40
2022-12-09T04:14:42.137Z,6.30
2022-12-09T04:17:10.330Z,6.30
2022-12-09T04:19:37.514Z,6.30
2022-12-09T04:22:04.956Z,6.20
2022-12-09T04:24:31.723Z,6.40
2022-12-09T04:26:58.677Z,6.50
2022-12-09T04:29:25.911Z,6.60
2022-12-09T04:31:53.163Z,6.60
2022-12-09T04:34:19.969Z,6.70
2022-12-09T04:36:47.952Z,6.70
2022-12-09T04:39:15.081Z,6.60
2022-12-09T04:41:41.999Z,6.40
2022-12-09T04:44:09.190Z,6.40
2022-12-09T04:46:36.154Z,6.30
2022-12-09T04:49:03.909Z,6.30
2022-12-09T04:51:37.568Z,6.30
2022-12-09T04:54:06.957Z,6.40
2022-12-09T04:56:33.933Z,6.40
2022-12-09T04:59:00.691Z,6.50
2022-12-09T05:01:31.263Z,6.50
2022-12-09T05:03:59.500Z,6.50
2022-12-09T05:06:26.791Z,6.50
2022-12-09T05:08:54.072Z,6.40
2022-12-09T05:11:21.727Z,6.50
2022-12-09T05:13:48.724Z,6.50
2022-12-09T05:16:17.682Z,6.50
2022-12-09T05:18:46.682Z,6.40
2022-12-09T05:21:17.221Z,6.30
2022-12-09T05:23:44.559Z,6.30
2022-12-09T05:26:14.576Z,6.30
2022-12-09T05:28:42.266Z,6.40
2022-12-09T05:31:19.876Z,6.50
2022-12-09T05:33:47.839Z,6.50
2022-12-09T05:36:17.184Z,6.50
2022-12-09T05:38:44.687Z,6.40
2022-12-09T05:41:12.111Z,6.40
2022-12-09T05:43:39.567Z,6.50
2022-12-09T05:46:07.729Z,6.50
2022-12-09T05:48:35.369Z,6.50
2022-12-09T05:51:09.275Z,6.50
2022-12-09T05:53:36.741Z,6.50
2022-12-09T05:56:03.929Z,6.30
2022-12-09T05:58:30.909Z,6.30
2022-12-09T06:01:04.300Z,6.40
2022-12-09T06:03:31.597Z,6.50
2022-12-09T06:05:59.150Z,6.40
2022-12-09T06:08:26.387Z,6.50
2022-12-09T06:10:53.809Z,6.50
2022-12-09T06:13:21.052Z,6.40
2022-12-09T06:15:47.896Z,6.40
2022-12-09T06:18:15.228Z,6.30
2022-12-09T06:20:42.431Z,6.30
2022-12-09T06:23:09.674Z,6.40
2022-12-09T06:25:36.966Z,6.30
2022-12-09T06:28:04.691Z,6.50
2022-12-09T06:30:31.956Z,6.50
2022-12-09T06:32:59.966Z,6.60
2022-12-09T06:35:26.902Z,6.40
2022-12-09T06:37:54.151Z,6.50
2022-12-09T06:40:22.880Z,6.50
2022-12-09T06:42:51.169Z,6.50
2022-12-09T06:45:19.952Z,6.60
2022-12-09T06:47:47.809Z,6.60
2022-12-09T06:50:15.546Z,6.60
2022-12-09T06:52:42.884Z,6.50
2022-12-09T06:55:11.220Z,6.60
2022-12-09T06:57:38.323Z,6.50
2022-12-09T07:00:06.492Z,6.60
2022-12-09T07:02:36.763Z,6.70
2022-12-09T07:05:04.600Z,6.70
2022-12-09T07:07:32.540Z,6.80
2022-12-09T07:10:02.037Z,6.70
2022-12-09T07:12:29.126Z,6.90
2022-12-09T07:14:56.043Z,6.90
2022-12-09T07:17:23.931Z,6.90
2022-12-09T07:19:50.756Z,6.90
2022-12-09T07:22:17.975Z,6.80
2022-12-09T07:24:45.291Z,6.80
2022-12-09T07:27:19.253Z,6.80
2022-12-09T07:29:47.203Z,6.70
2022-12-09T07:32:14.664Z,6.80
2022-12-09T07:34:42.104Z,6.70
2022-12-09T07:37:09.249Z,6.50
2022-12-09T07:39:36.171Z,6.40
2022-12-09T07:42:03.777Z,6.40
2022-12-09T07:44:31.120Z,6.50
2022-12-09T07:46:58.450Z,6.40
2022-12-09T07:49:25.862Z,6.30
2022-12-09T07:51:52.864Z,6.20
2022-12-09T07:54:20.527Z,6.40
2022-12-09T07:56:47.873Z,6.50
2022-12-09T07:59:16.192Z,6.50
2022-12-09T08:01:43.757Z,6.50
2022-12-09T08:04:11.213Z,6.50
2022-12-09T08:06:39.119Z,6.40
2022-12-09T08:09:10.346Z,6.40
2022-12-09T08:11:37.855Z,6.40
2022-12-09T08:14:11.386Z,6.30
2022-12-09T08:16:41.146Z,6.30
2022-12-09T08:19:09.158Z,6.30
2022-12-09T08:21:36.770Z,6.40
2022-12-09T08:24:06.101Z,6.30
2022-12-09T08:26:35.167Z,6.10
2022-12-09T08:29:02.148Z,6.10
2022-12-09T08:31:30.336Z,6.00
2022-12-09T08:33:58.613Z,5.90
2022-12-09T08:36:28.433Z,5.80
2022-12-09T08:38:58.077Z,5.80
2022-12-09T08:41:38.643Z,5.80
2022-12-09T08:44:08.839Z,5.80
2022-12-09T08:46:37.510Z,5.90
2022-12-09T08:49:05.519Z,6.00
2022-12-09T08:51:33.209Z,6.20
2022-12-09T08:54:01.488Z,6.20
2022-12-09T08:56:29.168Z,6.20
2022-12-09T08:58:56.593Z,6.40
2022-12-09T09:01:32.247Z,6.50
2022-12-09T09:04:07.922Z,6.50
2022-12-09T09:06:36.547Z,6.40
2022-12-09T09:09:05.143Z,6.30
2022-12-09T09:11:32.629Z,6.30
2022-12-09T09:14:00.385Z,6.20
2022-12-09T09:16:27.598Z,6.30
2022-12-09T09:18:55.383Z,6.30
2022-12-09T09:21:26.954Z,6.30
2022-12-09T09:23:54.755Z,6.20
2022-12-09T09:26:25.963Z,6.20
2022-12-09T09:28:53.809Z,6.20
2022-12-09T09:31:23.095Z,6.20
2022-12-09T09:33:50.957Z,6.10
2022-12-09T09:36:21.880Z,6.10
2022-12-09T09:38:50.828Z,6.20
2022-12-09T09:41:30.715Z,6.20
2022-12-09T09:43:58.261Z,6.10
2022-12-09T09:46:44.467Z,6.10
2022-12-09T09:49:37.591Z,6.30
2022-12-09T09:52:08.956Z,6.30
2022-12-09T09:54:36.445Z,6.30
2022-12-09T09:57:15.132Z,6.30
2022-12-09T09:59:45.467Z,6.30
2022-12-09T10:02:19.395Z,6.30
2022-12-09T10:04:52.703Z,6.10
2022-12-09T10:07:31.340Z,6.30
2022-12-09T10:10:26.016Z,6.30
2022-12-09T10:13:18.727Z,6.30
2022-12-09T10:16:00.013Z,6.40
2022-12-09T10:19:04.065Z,6.50
2022-12-09T10:21:40.257Z,6.40
2022-12-09T10:24:37.361Z,6.50
2022-12-09T10:27:16.599Z,6.50
2022-12-09T10:29:57.840Z,6.40
2022-12-09T10:32:32.753Z,6.40
2022-12-09T10:35:00.575Z,6.50
2022-12-09T10:37:33.913Z,6.60
2022-12-09T10:40:11.006Z,6.70
2022-12-09T10:43:13.747Z,6.70
2022-12-09T10:48:48.538Z,6.60
2022-12-09T10:51:21.645Z,6.60
2022-12-09T10:53:56.079Z,6.60
2022-12-09T10:56:31.097Z,6.50
2022-12-09T10:59:25.062Z,6.60
2022-12-09T11:02:22.959Z,6.50
2022-12-09T11:04:50.457Z,6.60
2022-12-09T11:07:22.912Z,6.70
2022-12-09T11:10:00.768Z,6.60
2022-12-09T11:12:30.865Z,6.60
2022-12-09T11:15:41.300Z,6.60
2022-12-09T11:18:21.319Z,6.50
2022-12-09T11:21:00.957Z,6.40
2022-12-09T11:23:29.040Z,6.50
2022-12-09T11:25:59.406Z,6.50
2022-12-09T11:28:30.518Z,6.50
2022-12-09T11:33:59.296Z,6.70
2022-12-09T11:36:34.279Z,6.90
2022-12-09T11:39:37.645Z,7.00
2022-12-09T11:42:23.089Z,6.90
2022-12-09T11:44:58.880Z,6.90
2022-12-09T11:50:32.401Z,6.90
2022-12-09T11:53:11.391Z,6.70
2022-12-09T11:55:43.702Z,6.80
2022-12-09T11:58:42.832Z,6.80
2022-12-09T12:01:23.530Z,6.90
2022-12-09T12:03:58.774Z,7.00
2022-12-09T12:06:47.868Z,7.00
2022-12-09T12:09:17.718Z,7.00
2022-12-09T12:12:16.866Z,6.90
2022-12-09T12:14:44.004Z,6.80
2022-12-09T12:17:16.588Z,6.90
2022-12-09T12:19:47.270Z,7.00
2022-12-09T12:22:22.918Z,7.10
2022-12-09T12:24:49.529Z,7.10
2022-12-09T12:27:31.030Z,7.10
2022-12-09T12:30:12.891Z,7.00
2022-12-09T12:36:04.580Z,6.90
2022-12-09T12:38:40.080Z,6.90
2022-12-09T12:41:43.094Z,6.90
2022-12-09T12:45:09.295Z,7.00
2022-12-09T12:47:48.330Z,7.00
2022-12-09T12:50:23.991Z,7.10
2022-12-09T12:52:57.997Z,7.10
2022-12-09T12:55:58.364Z,7.10
2022-12-09T12:58:39.830Z,7.20
2022-12-09T13:01:10.122Z,7.20
2022-12-09T13:03:53.407Z,7.30
2022-12-09T13:06:24.010Z,7.20
2022-12-09T13:09:03.384Z,7.20
2022-12-09T13:11:39.498Z,7.20
2022-12-09T13:14:18.827Z,7.20
2022-12-09T13:16:46.478Z,7.20
2022-12-09T13:19:19.110Z,7.20
2022-12-09T13:21:46.601Z,7.20
2022-12-09T13:24:42.552Z,7.20
2022-12-09T13:27:54.104Z,7.20
2022-12-09T13:30:26.776Z,7.30
2022-12-09T13:33:14.534Z,7.20
2022-12-09T13:35:48.107Z,7.50
2022-12-09T13:38:25.978Z,7.40
2022-12-09T13:40:52.833Z,7.40
2022-12-09T13:43:28.565Z,7.40
2022-12-09T13:46:01.382Z,7.50
2022-12-09T13:48:39.641Z,7.60
2022-12-09T13:51:06.922Z,7.50
2022-12-09T13:53:45.526Z,7.50
2022-12-09T13:56:24.026Z,7.70
2022-12-09T13:59:12.195Z,7.70
2022-12-09T14:01:49.865Z,7.70
2022-12-09T14:04:27.926Z,7.70
2022-12-09T14:06:57.207Z,7.70
2022-12-09T14:09:32.297Z,7.70
2022-12-09T14:12:00.910Z,7.70
2022-12-09T14:14:27.592Z,7.70
2022-12-09T14:17:02.145Z,7.70
2022-12-09T14:19:33.786Z,7.50
2022-12-09T14:22:22.104Z,7.30
2022-12-09T14:24:57.377Z,7.20
2022-12-09T14:27:30.142Z,7.30
2022-12-09T14:29:59.837Z,7.40
2022-12-09T14:32:26.546Z,7.40
2022-12-09T14:35:20.226Z,7.10
2022-12-09T14:37:55.492Z,7.20
2022-12-09T14:40:33.096Z,7.30
2022-12-09T14:43:29.358Z,7.10
2022-12-09T14:46:02.098Z,7.10
2022-12-09T14:48:35.111Z,7.10
2022-12-09T14:51:28.052Z,7.00
2022-12-09T14:54:01.571Z,7.00
2022-12-09T14:56:30.254Z,7.10
2022-12-09T14:59:16.234Z,6.90
2022-12-09T15:01:50.067Z,6.90
2022-12-09T15:04:44.776Z,6.90
2022-12-09T15:07:21.677Z,6.80
2022-12-09T15:09:53.150Z,6.80
2022-12-09T15:12:34.822Z,6.90
2022-12-09T15:15:10.712Z,6.90
2022-12-09T15:17:53.985Z,6.90
2022-12-09T15:20:22.999Z,6.90
2022-12-09T15:22:56.411Z,6.90
2022-12-09T15:25:24.593Z,6.90
2022-12-09T15:28:04.831Z,7.00
2022-12-09T15:30:37.756Z,6.90
2022-12-09T15:33:17.628Z,7.00
2022-12-09T15:36:23.783Z,6.90
2022-12-09T15:39:07.378Z,7.00
2022-12-09T15:41:59.046Z,7.00
2022-12-09T15:44:27.867Z,6.90
2022-12-09T15:46:57.483Z,6.80
2022-12-09T15:49:30.036Z,6.80
2022-12-09T15:51:57.204Z,6.80
2022-12-09T15:54:34.058Z,7.00
2022-12-09T15:57:03.862Z,6.80
2022-12-09T15:59:38.846Z,6.70
2022-12-09T16:02:07.657Z,6.70
2022-12-09T16:04:44.346Z,6.70
2022-12-09T16:07:15.422Z,6.70
2022-12-09T16:09:59.341Z,6.70
2022-12-09T16:12:28.276Z,6.60
2022-12-09T16:14:55.467Z,6.70
2022-12-09T16:17:25.162Z,6.60
2022-12-09T16:19:51.930Z,6.80
2022-12-09T16:22:28.967Z,6.60
2022-12-09T16:25:27.130Z,6.70
2022-12-09T16:28:03.263Z,6.70
2022-12-09T16:30:32.375Z,6.70
2022-12-09T16:33:01.706Z,6.70
2022-12-09T16:35:33.557Z,6.70
2022-12-09T16:38:14.935Z,6.80
2022-12-09T16:40:44.754Z,6.90
2022-12-09T16:43:20.734Z,6.80
2022-12-09T16:45:56.123Z,6.70
2022-12-09T16:48:24.600Z,6.70
2022-12-09T16:51:13.496Z,6.80
2022-12-09T16:53:45.634Z,6.80
2022-12-09T16:56:32.485Z,6.80
2022-12-09T16:58:59.766Z,6.70
2022-12-09T17:01:31.879Z,6.60
2022-12-09T17:04:04.220Z,6.50
2022-12-09T17:06:31.332Z,6.20
2022-12-09T17:08:58.110Z,6.20
2022-12-09T17:11:24.900Z,6.30
2022-12-09T17:13:51.864Z,6.40
2022-12-09T17:16:22.052Z,6.30
2022-12-09T17:18:49.630Z,6.10
2022-12-09T17:21:16.773Z,6.10
2022-12-09T17:23:44.148Z,6.10
2022-12-09T17:26:13.914Z,6.10
2022-12-09T17:28:43.878Z,6.40
2022-12-09T17:31:22.364Z,6.40
2022-12-09T17:33:49.361Z,6.30
2022-12-09T17:36:17.656Z,6.30
2022-12-09T17:38:44.639Z,6.40
2022-12-09T17:41:15.791Z,6.40
2022-12-09T17:43:43.240Z,6.50
2022-12-09T17:46:11.422Z,6.50
2022-12-09T17:48:40.132Z,6.50
2022-12-09T17:51:09.079Z,6.50
2022-12-09T17:53:38.008Z,6.40
2022-12-09T17:56:06.969Z,6.40
2022-12-09T17:58:33.746Z,6.40
2022-12-09T18:01:00.767Z,6.40
2022-12-09T18:03:54.503Z,6.50
2022-12-09T18:06:15.675Z,6.50
2022-12-09T18:08:42.468Z,6.60
2022-12-09T18:11:10.945Z,6.50
2022-12-09T18:13:38.731Z,6.50
2022-12-09T18:16:09.889Z,6.40
2022-12-09T18:18:38.023Z,6.40
2022-12-09T18:21:08.216Z,6.40
2022-12-09T18:23:37.960Z,6.40
2022-12-09T18:26:14.020Z,6.40
2022-12-09T18:28:41.420Z,6.30
2022-12-09T18:31:16.133Z,6.20
2022-12-09T18:33:43.281Z,6.30
2022-12-09T18:36:13.139Z,6.30
2022-12-09T18:38:41.503Z,6.30
2022-12-09T18:41:17.623Z,6.30
2022-12-09T18:43:45.849Z,6.30
2022-12-09T18:46:25.489Z,6.10
2022-12-09T18:48:57.698Z,6.20
2022-12-09T18:51:25.525Z,6.10
2022-12-09T18:53:52.567Z,6.00
2022-12-09T18:56:19.738Z,6.10
2022-12-09T19:01:34.229Z,6.10
2022-12-09T19:04:03.377Z,6.10
2022-12-09T19:06:36.038Z,6.20
2022-12-09T19:09:06.040Z,6.30
2022-12-09T19:11:34.776Z,6.30
2022-12-09T19:14:02.163Z,6.40
2022-12-09T19:16:29.450Z,6.20
2022-12-09T19:18:57.325Z,6.10
2022-12-09T19:21:26.002Z,6.20
2022-12-09T19:23:54.819Z,6.10
2022-12-09T19:26:28.831Z,6.10
2022-12-09T19:28:57.852Z,6.20
2022-12-09T19:31:29.033Z,6.30
2022-12-09T19:33:57.293Z,6.20
2022-12-09T19:36:25.292Z,6.30
2022-12-09T19:38:52.599Z,6.20
2022-12-09T19:41:19.882Z,6.10
2022-12-09T19:43:47.271Z,6.10
2022-12-09T19:46:15.573Z,6.10
2022-12-09T19:48:47.040Z,6.10
2022-12-09T19:51:16.418Z,6.20
2022-12-09T19:53:43.617Z,6.30
2022-12-09T19:56:19.456Z,6.40
2022-12-09T19:58:47.265Z,6.30
2022-12-09T20:01:20.468Z,6.40
2022-12-09T20:03:49.914Z,6.40
2022-12-09T20:06:18.620Z,6.30
2022-12-09T20:08:45.894Z,6.30
2022-12-09T20:11:15.503Z,6.30
2022-12-09T20:13:42.860Z,6.20
2022-12-09T20:16:12.416Z,6.20
2022-12-09T20:18:39.610Z,6.20
2022-12-09T20:21:09.557Z,6.10
2022-12-09T20:23:38.521Z,6.10
2022-12-09T20:26:06.595Z,6.10
2022-12-09T20:28:34.346Z,6.30
2022-12-09T20:31:14.258Z,6.40
2022-12-09T20:33:41.842Z,6.50
2022-12-09T20:36:11.660Z,6.60
2022-12-09T20:38:39.104Z,6.60
2022-12-09T20:41:11.355Z,6.50
2022-12-09T20:43:39.712Z,6.50
2022-12-09T20:46:10.495Z,6.40
2022-12-09T20:48:38.940Z,6.30
2022-12-09T20:51:12.395Z,6.20
2022-12-09T20:53:41.256Z,6.30
2022-12-09T20:56:08.693Z,6.30
2022-12-09T20:58:37.286Z,6.20
2022-12-09T21:01:08.020Z,6.20
2022-12-09T21:03:35.654Z,6.20
2022-12-09T21:06:02.869Z,6.20
2022-12-09T21:08:31.987Z,6.20
2022-12-09T21:11:11.030Z,6.30
2022-12-09T21:13:39.994Z,6.40
2022-12-09T21:16:15.754Z,6.30
2022-12-09T21:18:43.634Z,6.20
2022-12-09T21:21:10.396Z,6.20
2022-12-09T21:23:38.405Z,6.30
2022-12-09T21:26:09.898Z,6.30
2022-12-09T21:28:37.662Z,6.20
2022-12-09T21:31:13.057Z,6.30
2022-12-09T21:33:41.262Z,6.40
2022-12-09T21:36:10.761Z,6.40
2022-12-09T21:38:38.094Z,6.40
2022-12-09T21:41:10.773Z,6.30
2022-12-09T21:43:37.903Z,6.30
2022-12-09T21:46:17.828Z,6.30
2022-12-09T21:48:50.599Z,6.30
2022-12-09T21:51:19.739Z,6.10
2022-12-09T21:53:47.434Z,6.10
2022-12-09T21:56:20.652Z,5.90
2022-12-09T21:58:49.194Z,5.90
2022-12-09T22:01:19.995Z,5.80
2022-12-09T22:03:47.872Z,5.80
2022-12-09T22:06:15.792Z,6.00
2022-12-09T22:08:43.290Z,6.10
2022-12-09T22:11:13.755Z,6.20
2022-12-09T22:13:40.902Z,6.20
2022-12-09T22:16:13.052Z,6.20
2022-12-09T22:18:41.851Z,6.30
2022-12-09T22:21:30.098Z,6.30
2022-12-09T22:24:01.225Z,6.20
2022-12-09T22:26:28.637Z,6.20
2022-12-09T22:28:56.930Z,6.30
2022-12-09T22:31:32.942Z,6.30
2022-12-09T22:34:02.799Z,6.30
2022-12-09T22:36:29.982Z,6.20
2022-12-09T22:38:56.922Z,6.10
2022-12-09T22:41:26.359Z,6.00
2022-12-09T22:43:54.948Z,6.10
2022-12-09T22:46:27.881Z,6.10
2022-12-09T22:49:05.783Z,6.10
2022-12-09T22:51:35.630Z,6.30
2022-12-09T22:54:08.090Z,6.20
2022-12-09T22:56:37.291Z,6.30
2022-12-09T22:59:04.616Z,6.50
2022-12-09T23:01:35.532Z,6.50
2022-12-09T23:04:03.639Z,6.60
2022-12-09T23:06:30.912Z,6.60
2022-12-09T23:08:58.370Z,6.60
2022-12-09T23:11:27.362Z,6.60
2022-12-09T23:13:54.715Z,6.70
2022-12-09T23:16:24.440Z,6.60
2022-12-09T23:18:52.164Z,6.60
2022-12-09T23:21:31.921Z,6.60
2022-12-09T23:24:01.277Z,6.60
2022-12-09T23:26:31.462Z,6.50
2022-12-09T23:29:00.270Z,6.60
2022-12-09T23:31:30.033Z,6.60
2022-12-09T23:33:56.937Z,6.50
2022-12-09T23:36:32.160Z,6.50
2022-12-09T23:39:00.355Z,6.40
2022-12-09T23:41:27.924Z,6.30
2022-12-09T23:43:55.314Z,6.20
2022-12-09T23:46:24.612Z,6.30
2022-12-09T23:48:52.468Z,6.30
2022-12-09T23:51:26.052Z,6.30
2022-12-09T23:53:56.222Z,6.20
2022-12-09T23:56:24.400Z,6.10
2022-12-09T23:59:00.022Z,6.20
